Terminal Aerodrome Forecast
Issued by NWS

Home | Current Version | Previous Version | Text Only | Print | Product List | Glossary On
Versions: 1 2 3 4 5 6 7 8 9 10 11 12 13 14 15 16 17 18 19 20 21 22 23
000
FTUS43 KPAH 162340
TAFCGI
TAF
KCGI 162340Z 1700/1724 17009KT 5SM -SHRA BR VCTS BKN035CB
      TEMPO 1700/1704 P6SM NSW SCT035 BKN050
     FM170400 22011KT 4SM BR OVC012
     FM170800 24008KT P6SM SKC
     FM171500 26010KT P6SM BKN025=

USA.gov is the U.S. government's official web portal to all federal, state and local government web resources and services.